METAR og TAF for ENBR

METAR og TAF for ENBR (Flesland). Data er hentet fra https://aviationweather.gov

METAR for:ENBR (Bergen/Flesland Arpt, HO, NO)
Text:ENBR 192020Z 35009KT CAVOK 12/06 Q1016 RMK WIND 1200FT 35013KT
Conditions at:2020 UTC 19 May 2024
Temperature: 12.0°C ( 54°F)
Dewpoint: 6.0°C ( 43°F) [RH = 67%]
Pressure (altimeter):30.00 inches Hg (1016.0 mb)
Winds:from the N (350 degrees) at 10 MPH (9 knots; 4.6 m/s)
Visibility:6 or more sm (10+ km)
Ceiling:ceiling and visibility are OK
Clouds:unknown
TAF for:ENBR (Bergen/Flesland Arpt, HO, NO) issued at 1700 UTC 19 May 2024
Text:TAF ENBR 191700Z 1918/2018 34012KT CAVOK
Forecast period:1800 UTC 19 May 2024 to 0900 UTC 20 May 2024
Forecast type:FROM: standard forecast or significant change
Winds:from the NNW (340 degrees) at 14 MPH (12 knots; 6.2 m/s)
Visibility:6 or more sm (10+ km)
Clouds:missing
Weather:NSW (no significant weather)
Text:BECMG 2009/2012 26005KT
Forecast period:0900 to 1800 UTC 20 May 2024
Forecast type:BECOMING: Conditions expected to become as follows by 1200 UTC 20 May 2024
Winds:from the W (260 degrees) at 6 MPH (5 knots; 2.6 m/s)
Visibility:6 or more sm (10+ km)
Clouds:missing
Weather:NSW (no significant weather)

Comments are closed.